sensor_id;sensor_type;location;lat;lon;timestamp;P1;durP1;ratioP1;P2;durP2;ratioP2
22111;SDS011;11222;50.872;4.312;2023-04-23T00:02:02;26.52;;;20.58;;
22111;SDS011;11222;50.872;4.312;2023-04-23T00:04:30;28.73;;;21.00;;
22111;SDS011;11222;50.872;4.312;2023-04-23T00:07:01;31.83;;;21.85;;
22111;SDS011;11222;50.872;4.312;2023-04-23T00:09:28;31.02;;;20.70;;
22111;SDS011;11222;50.872;4.312;2023-04-23T00:11:56;29.23;;;21.27;;
22111;SDS011;11222;50.872;4.312;2023-04-23T00:14:22;27.00;;;20.33;;
22111;SDS011;11222;50.872;4.312;2023-04-23T00:16:48;26.75;;;20.80;;
22111;SDS011;11222;50.872;4.312;2023-04-23T00:19:14;25.27;;;19.33;;
22111;SDS011;11222;50.872;4.312;2023-04-23T00:21:39;27.13;;;20.02;;
22111;SDS011;11222;50.872;4.312;2023-04-23T00:24:05;27.63;;;20.33;;
22111;SDS011;11222;50.872;4.312;2023-04-23T00:26:31;27.35;;;21.08;;
22111;SDS011;11222;50.872;4.312;2023-04-23T00:28:57;24.48;;;19.38;;
22111;SDS011;11222;50.872;4.312;2023-04-23T00:31:23;27.30;;;20.42;;
22111;SDS011;11222;50.872;4.312;2023-04-23T00:33:51;27.02;;;20.20;;
22111;SDS011;11222;50.872;4.312;2023-04-23T00:36:17;25.45;;;19.33;;
22111;SDS011;11222;50.872;4.312;2023-04-23T00:38:42;25.13;;;19.08;;
22111;SDS011;11222;50.872;4.312;2023-04-23T00:41:08;25.80;;;19.00;;
22111;SDS011;11222;50.872;4.312;2023-04-23T00:43:35;25.10;;;18.60;;
22111;SDS011;11222;50.872;4.312;2023-04-23T00:46:01;24.67;;;18.40;;
22111;SDS011;11222;50.872;4.312;2023-04-23T00:48:27;26.17;;;18.48;;
22111;SDS011;11222;50.872;4.312;2023-04-23T00:50:57;24.98;;;17.30;;
22111;SDS011;11222;50.872;4.312;2023-04-23T00:53:25;25.48;;;17.17;;
22111;SDS011;11222;50.872;4.312;2023-04-23T00:55:51;23.60;;;16.65;;
22111;SDS011;11222;50.872;4.312;2023-04-23T00:58:17;19.88;;;15.57;;
22111;SDS011;11222;50.872;4.312;2023-04-23T01:00:43;21.17;;;16.23;;
22111;SDS011;11222;50.872;4.312;2023-04-23T01:03:12;20.00;;;16.20;;
22111;SDS011;11222;50.872;4.312;2023-04-23T01:05:38;20.20;;;15.38;;
22111;SDS011;11222;50.872;4.312;2023-04-23T01:08:06;21.00;;;16.65;;
22111;SDS011;11222;50.872;4.312;2023-04-23T01:10:33;23.10;;;15.90;;
22111;SDS011;11222;50.872;4.312;2023-04-23T01:12:59;20.88;;;16.38;;
22111;SDS011;11222;50.872;4.312;2023-04-23T01:15:25;19.00;;;15.07;;
22111;SDS011;11222;50.872;4.312;2023-04-23T01:17:50;19.88;;;15.00;;
22111;SDS011;11222;50.872;4.312;2023-04-23T01:20:17;20.67;;;15.05;;
22111;SDS011;11222;50.872;4.312;2023-04-23T01:22:43;19.27;;;15.25;;
22111;SDS011;11222;50.872;4.312;2023-04-23T01:25:09;21.85;;;15.63;;
22111;SDS011;11222;50.872;4.312;2023-04-23T01:27:34;20.52;;;14.60;;
22111;SDS011;11222;50.872;4.312;2023-04-23T01:30:03;18.90;;;14.60;;
22111;SDS011;11222;50.872;4.312;2023-04-23T01:32:30;18.42;;;14.38;;
22111;SDS011;11222;50.872;4.312;2023-04-23T01:34:57;18.20;;;14.10;;
22111;SDS011;11222;50.872;4.312;2023-04-23T01:37:23;17.42;;;14.20;;
22111;SDS011;11222;50.872;4.312;2023-04-23T01:39:50;19.40;;;14.93;;
22111;SDS011;11222;50.872;4.312;2023-04-23T01:42:16;20.08;;;14.68;;
22111;SDS011;11222;50.872;4.312;2023-04-23T01:44:41;19.85;;;15.02;;
22111;SDS011;11222;50.872;4.312;2023-04-23T01:47:07;19.45;;;14.80;;
22111;SDS011;11222;50.872;4.312;2023-04-23T01:49:33;18.25;;;14.63;;
22111;SDS011;11222;50.872;4.312;2023-04-23T01:51:59;20.67;;;15.48;;
22111;SDS011;11222;50.872;4.312;2023-04-23T01:54:24;20.65;;;14.95;;
22111;SDS011;11222;50.872;4.312;2023-04-23T01:56:50;18.88;;;14.48;;
22111;SDS011;11222;50.872;4.312;2023-04-23T01:59:19;20.40;;;15.00;;
22111;SDS011;11222;50.872;4.312;2023-04-23T02:01:46;19.35;;;15.05;;
22111;SDS011;11222;50.872;4.312;2023-04-23T02:04:13;18.50;;;14.73;;
22111;SDS011;11222;50.872;4.312;2023-04-23T02:06:40;18.17;;;13.80;;
22111;SDS011;11222;50.872;4.312;2023-04-23T02:09:07;18.08;;;14.15;;
22111;SDS011;11222;50.872;4.312;2023-04-23T02:11:33;20.77;;;14.75;;
22111;SDS011;11222;50.872;4.312;2023-04-23T02:13:59;19.05;;;14.48;;
22111;SDS011;11222;50.872;4.312;2023-04-23T02:16:26;18.40;;;14.30;;
22111;SDS011;11222;50.872;4.312;2023-04-23T02:18:52;19.88;;;14.43;;
22111;SDS011;11222;50.872;4.312;2023-04-23T02:21:19;19.60;;;14.85;;
22111;SDS011;11222;50.872;4.312;2023-04-23T02:23:47;17.73;;;14.65;;
22111;SDS011;11222;50.872;4.312;2023-04-23T02:26:12;22.30;;;15.07;;
22111;SDS011;11222;50.872;4.312;2023-04-23T02:28:38;17.88;;;14.43;;
22111;SDS011;11222;50.872;4.312;2023-04-23T02:31:04;18.77;;;14.43;;
22111;SDS011;11222;50.872;4.312;2023-04-23T02:33:30;18.52;;;14.88;;
22111;SDS011;11222;50.872;4.312;2023-04-23T02:35:56;17.13;;;13.85;;
22111;SDS011;11222;50.872;4.312;2023-04-23T02:38:21;20.10;;;15.27;;
22111;SDS011;11222;50.872;4.312;2023-04-23T02:40:47;19.90;;;15.30;;
22111;SDS011;11222;50.872;4.312;2023-04-23T02:43:13;16.40;;;13.77;;
22111;SDS011;11222;50.872;4.312;2023-04-23T02:45:38;19.88;;;14.93;;
22111;SDS011;11222;50.872;4.312;2023-04-23T02:48:04;19.45;;;14.23;;
22111;SDS011;11222;50.872;4.312;2023-04-23T02:50:29;19.73;;;14.02;;
22111;SDS011;11222;50.872;4.312;2023-04-23T02:52:55;18.40;;;13.55;;
22111;SDS011;11222;50.872;4.312;2023-04-23T02:55:21;20.42;;;13.90;;
22111;SDS011;11222;50.872;4.312;2023-04-23T02:57:49;17.65;;;13.60;;
22111;SDS011;11222;50.872;4.312;2023-04-23T03:00:15;21.00;;;14.13;;
22111;SDS011;11222;50.872;4.312;2023-04-23T03:02:41;18.30;;;13.52;;
22111;SDS011;11222;50.872;4.312;2023-04-23T03:05:06;18.30;;;14.75;;
22111;SDS011;11222;50.872;4.312;2023-04-23T03:07:32;18.80;;;13.77;;
22111;SDS011;11222;50.872;4.312;2023-04-23T03:09:58;18.27;;;13.82;;
22111;SDS011;11222;50.872;4.312;2023-04-23T03:12:24;18.75;;;14.10;;
22111;SDS011;11222;50.872;4.312;2023-04-23T03:14:49;20.35;;;14.07;;
22111;SDS011;11222;50.872;4.312;2023-04-23T03:17:15;17.92;;;13.35;;
22111;SDS011;11222;50.872;4.312;2023-04-23T03:19:41;17.77;;;12.85;;
22111;SDS011;11222;50.872;4.312;2023-04-23T03:22:07;17.00;;;12.73;;
22111;SDS011;11222;50.872;4.312;2023-04-23T03:24:33;17.00;;;13.23;;
22111;SDS011;11222;50.872;4.312;2023-04-23T03:26:59;17.33;;;13.20;;
22111;SDS011;11222;50.872;4.312;2023-04-23T03:29:25;16.38;;;12.40;;
22111;SDS011;11222;50.872;4.312;2023-04-23T03:31:51;16.60;;;12.48;;
22111;SDS011;11222;50.872;4.312;2023-04-23T03:34:16;14.77;;;12.35;;
22111;SDS011;11222;50.872;4.312;2023-04-23T03:36:42;18.63;;;13.10;;
22111;SDS011;11222;50.872;4.312;2023-04-23T03:39:10;16.50;;;12.27;;
22111;SDS011;11222;50.872;4.312;2023-04-23T03:41:36;15.38;;;11.95;;
22111;SDS011;11222;50.872;4.312;2023-04-23T03:44:01;16.80;;;12.65;;
22111;SDS011;11222;50.872;4.312;2023-04-23T03:46:27;16.15;;;12.50;;
22111;SDS011;11222;50.872;4.312;2023-04-23T03:48:52;17.63;;;12.73;;
22111;SDS011;11222;50.872;4.312;2023-04-23T03:51:18;17.88;;;11.77;;
22111;SDS011;11222;50.872;4.312;2023-04-23T03:53:44;16.77;;;11.23;;
22111;SDS011;11222;50.872;4.312;2023-04-23T03:56:10;18.13;;;12.15;;
22111;SDS011;11222;50.872;4.312;2023-04-23T03:58:39;16.15;;;11.75;;
22111;SDS011;11222;50.872;4.312;2023-04-23T04:01:04;18.35;;;12.25;;
22111;SDS011;11222;50.872;4.312;2023-04-23T04:03:31;15.15;;;12.15;;
22111;SDS011;11222;50.872;4.312;2023-04-23T04:05:56;16.13;;;12.50;;
22111;SDS011;11222;50.872;4.312;2023-04-23T04:08:22;17.60;;;11.48;;
22111;SDS011;11222;50.872;4.312;2023-04-23T04:10:48;15.15;;;11.55;;
22111;SDS011;11222;50.872;4.312;2023-04-23T04:13:20;15.63;;;11.35;;
22111;SDS011;11222;50.872;4.312;2023-04-23T04:15:49;16.90;;;12.15;;
22111;SDS011;11222;50.872;4.312;2023-04-23T04:18:15;17.17;;;11.80;;
22111;SDS011;11222;50.872;4.312;2023-04-23T04:20:40;15.15;;;11.77;;
22111;SDS011;11222;50.872;4.312;2023-04-23T04:23:08;17.02;;;11.55;;
22111;SDS011;11222;50.872;4.312;2023-04-23T04:25:34;21.27;;;12.05;;
22111;SDS011;11222;50.872;4.312;2023-04-23T04:28:03;16.33;;;12.02;;
22111;SDS011;11222;50.872;4.312;2023-04-23T04:30:32;15.40;;;10.68;;
22111;SDS011;11222;50.872;4.312;2023-04-23T04:32:58;16.45;;;11.00;;
22111;SDS011;11222;50.872;4.312;2023-04-23T04:35:25;20.13;;;11.63;;
22111;SDS011;11222;50.872;4.312;2023-04-23T04:37:51;18.08;;;10.60;;
22111;SDS011;11222;50.872;4.312;2023-04-23T04:40:18;18.17;;;11.07;;
22111;SDS011;11222;50.872;4.312;2023-04-23T04:42:44;16.80;;;10.75;;
22111;SDS011;11222;50.872;4.312;2023-04-23T04:45:11;13.45;;;10.15;;
22111;SDS011;11222;50.872;4.312;2023-04-23T04:47:37;14.18;;;9.88;;
22111;SDS011;11222;50.872;4.312;2023-04-23T04:50:03;16.23;;;9.25;;
22111;SDS011;11222;50.872;4.312;2023-04-23T04:52:29;18.52;;;10.40;;
22111;SDS011;11222;50.872;4.312;2023-04-23T04:54:55;14.07;;;9.35;;
22111;SDS011;11222;50.872;4.312;2023-04-23T04:57:21;14.35;;;10.18;;
22111;SDS011;11222;50.872;4.312;2023-04-23T04:59:47;15.05;;;9.25;;
22111;SDS011;11222;50.872;4.312;2023-04-23T05:02:14;15.65;;;9.27;;
22111;SDS011;11222;50.872;4.312;2023-04-23T05:04:40;11.73;;;8.80;;
22111;SDS011;11222;50.872;4.312;2023-04-23T05:07:05;15.75;;;8.93;;
22111;SDS011;11222;50.872;4.312;2023-04-23T05:09:31;12.90;;;8.10;;
22111;SDS011;11222;50.872;4.312;2023-04-23T05:11:57;14.35;;;8.38;;
22111;SDS011;11222;50.872;4.312;2023-04-23T05:14:22;14.40;;;8.98;;
22111;SDS011;11222;50.872;4.312;2023-04-23T05:16:50;17.17;;;9.30;;
22111;SDS011;11222;50.872;4.312;2023-04-23T05:19:16;15.80;;;9.25;;
22111;SDS011;11222;50.872;4.312;2023-04-23T05:21:41;11.25;;;7.95;;
22111;SDS011;11222;50.872;4.312;2023-04-23T05:24:07;16.30;;;8.02;;
22111;SDS011;11222;50.872;4.312;2023-04-23T05:26:33;11.85;;;7.72;;
22111;SDS011;11222;50.872;4.312;2023-04-23T05:28:58;13.45;;;7.57;;
22111;SDS011;11222;50.872;4.312;2023-04-23T05:31:24;13.57;;;7.90;;
22111;SDS011;11222;50.872;4.312;2023-04-23T05:33:50;10.93;;;7.57;;
22111;SDS011;11222;50.872;4.312;2023-04-23T05:36:16;14.18;;;6.95;;
22111;SDS011;11222;50.872;4.312;2023-04-23T05:38:42;10.77;;;7.22;;
22111;SDS011;11222;50.872;4.312;2023-04-23T05:41:08;11.35;;;7.00;;
22111;SDS011;11222;50.872;4.312;2023-04-23T05:43:34;10.48;;;6.50;;
22111;SDS011;11222;50.872;4.312;2023-04-23T05:45:59;15.63;;;7.20;;
22111;SDS011;11222;50.872;4.312;2023-04-23T05:48:26;12.52;;;6.70;;
22111;SDS011;11222;50.872;4.312;2023-04-23T05:50:52;11.80;;;6.82;;
22111;SDS011;11222;50.872;4.312;2023-04-23T05:53:18;10.85;;;7.40;;
22111;SDS011;11222;50.872;4.312;2023-04-23T05:55:43;12.15;;;7.05;;
22111;SDS011;11222;50.872;4.312;2023-04-23T05:58:09;9.45;;;6.50;;
22111;SDS011;11222;50.872;4.312;2023-04-23T06:00:35;9.18;;;6.75;;
22111;SDS011;11222;50.872;4.312;2023-04-23T06:03:01;17.45;;;6.75;;
22111;SDS011;11222;50.872;4.312;2023-04-23T06:05:27;10.13;;;6.35;;
22111;SDS011;11222;50.872;4.312;2023-04-23T06:07:52;8.05;;;5.63;;
22111;SDS011;11222;50.872;4.312;2023-04-23T06:10:18;8.60;;;5.93;;
22111;SDS011;11222;50.872;4.312;2023-04-23T06:12:44;12.45;;;6.55;;
22111;SDS011;11222;50.872;4.312;2023-04-23T06:15:09;10.15;;;5.70;;
22111;SDS011;11222;50.872;4.312;2023-04-23T06:17:35;10.05;;;5.47;;
22111;SDS011;11222;50.872;4.312;2023-04-23T06:20:01;12.15;;;5.72;;
22111;SDS011;11222;50.872;4.312;2023-04-23T06:22:29;16.02;;;6.07;;
22111;SDS011;11222;50.872;4.312;2023-04-23T06:24:55;10.55;;;5.22;;
22111;SDS011;11222;50.872;4.312;2023-04-23T06:27:21;10.63;;;5.60;;
22111;SDS011;11222;50.872;4.312;2023-04-23T06:29:46;10.95;;;5.57;;
22111;SDS011;11222;50.872;4.312;2023-04-23T06:32:12;9.25;;;4.97;;
22111;SDS011;11222;50.872;4.312;2023-04-23T06:34:38;12.25;;;4.90;;
22111;SDS011;11222;50.872;4.312;2023-04-23T06:37:03;11.75;;;5.53;;
22111;SDS011;11222;50.872;4.312;2023-04-23T06:39:29;11.70;;;5.45;;
22111;SDS011;11222;50.872;4.312;2023-04-23T06:41:55;9.55;;;4.75;;
22111;SDS011;11222;50.872;4.312;2023-04-23T06:44:22;9.63;;;4.97;;
22111;SDS011;11222;50.872;4.312;2023-04-23T06:46:47;8.73;;;4.88;;
22111;SDS011;11222;50.872;4.312;2023-04-23T06:49:13;7.78;;;4.30;;
22111;SDS011;11222;50.872;4.312;2023-04-23T06:51:39;12.35;;;4.72;;
22111;SDS011;11222;50.872;4.312;2023-04-23T06:54:05;12.40;;;4.78;;
22111;SDS011;11222;50.872;4.312;2023-04-23T06:56:30;8.02;;;4.60;;
22111;SDS011;11222;50.872;4.312;2023-04-23T06:58:56;14.35;;;4.72;;
22111;SDS011;11222;50.872;4.312;2023-04-23T07:01:22;12.70;;;4.38;;
22111;SDS011;11222;50.872;4.312;2023-04-23T07:03:47;8.98;;;4.45;;
22111;SDS011;11222;50.872;4.312;2023-04-23T07:06:15;12.90;;;4.45;;
22111;SDS011;11222;50.872;4.312;2023-04-23T07:08:41;10.60;;;4.25;;
22111;SDS011;11222;50.872;4.312;2023-04-23T07:11:08;11.15;;;4.20;;
22111;SDS011;11222;50.872;4.312;2023-04-23T07:13:34;13.32;;;4.53;;
22111;SDS011;11222;50.872;4.312;2023-04-23T07:16:00;9.23;;;4.30;;
22111;SDS011;11222;50.872;4.312;2023-04-23T07:18:26;8.73;;;4.55;;
22111;SDS011;11222;50.872;4.312;2023-04-23T07:20:51;9.13;;;4.32;;
22111;SDS011;11222;50.872;4.312;2023-04-23T07:23:17;9.55;;;4.28;;
22111;SDS011;11222;50.872;4.312;2023-04-23T07:25:43;11.70;;;4.20;;
22111;SDS011;11222;50.872;4.312;2023-04-23T07:28:08;11.35;;;4.53;;
22111;SDS011;11222;50.872;4.312;2023-04-23T07:30:34;8.50;;;4.00;;
22111;SDS011;11222;50.872;4.312;2023-04-23T07:33:00;8.93;;;4.03;;
22111;SDS011;11222;50.872;4.312;2023-04-23T07:35:26;14.75;;;5.35;;
22111;SDS011;11222;50.872;4.312;2023-04-23T07:37:52;7.55;;;3.95;;
22111;SDS011;11222;50.872;4.312;2023-04-23T07:40:23;9.30;;;4.15;;
22111;SDS011;11222;50.872;4.312;2023-04-23T07:42:49;11.60;;;4.55;;
22111;SDS011;11222;50.872;4.312;2023-04-23T07:45:16;10.20;;;4.28;;
22111;SDS011;11222;50.872;4.312;2023-04-23T07:47:42;10.38;;;3.83;;
22111;SDS011;11222;50.872;4.312;2023-04-23T07:50:09;16.63;;;4.32;;
22111;SDS011;11222;50.872;4.312;2023-04-23T07:52:35;8.63;;;3.65;;
22111;SDS011;11222;50.872;4.312;2023-04-23T07:55:01;10.63;;;3.88;;
22111;SDS011;11222;50.872;4.312;2023-04-23T07:57:27;9.23;;;4.00;;
22111;SDS011;11222;50.872;4.312;2023-04-23T07:59:52;12.15;;;4.00;;
22111;SDS011;11222;50.872;4.312;2023-04-23T08:02:18;7.72;;;3.47;;
22111;SDS011;11222;50.872;4.312;2023-04-23T08:04:47;11.80;;;3.80;;
22111;SDS011;11222;50.872;4.312;2023-04-23T08:07:13;10.05;;;3.80;;
22111;SDS011;11222;50.872;4.312;2023-04-23T08:09:39;8.65;;;3.88;;
22111;SDS011;11222;50.872;4.312;2023-04-23T08:12:05;8.75;;;3.33;;
22111;SDS011;11222;50.872;4.312;2023-04-23T08:14:30;9.45;;;3.80;;
22111;SDS011;11222;50.872;4.312;2023-04-23T08:16:56;7.35;;;3.58;;
22111;SDS011;11222;50.872;4.312;2023-04-23T08:19:21;6.80;;;2.90;;
22111;SDS011;11222;50.872;4.312;2023-04-23T08:21:47;10.40;;;3.65;;
22111;SDS011;11222;50.872;4.312;2023-04-23T08:24:13;9.43;;;4.07;;
22111;SDS011;11222;50.872;4.312;2023-04-23T08:26:38;9.85;;;3.35;;
22111;SDS011;11222;50.872;4.312;2023-04-23T08:29:04;8.63;;;3.63;;
22111;SDS011;11222;50.872;4.312;2023-04-23T08:31:30;10.05;;;4.22;;
22111;SDS011;11222;50.872;4.312;2023-04-23T08:33:56;5.30;;;3.40;;
22111;SDS011;11222;50.872;4.312;2023-04-23T08:36:22;13.07;;;3.92;;
22111;SDS011;11222;50.872;4.312;2023-04-23T08:38:48;11.05;;;3.80;;
22111;SDS011;11222;50.872;4.312;2023-04-23T08:41:14;7.25;;;3.30;;
22111;SDS011;11222;50.872;4.312;2023-04-23T08:43:44;8.82;;;3.20;;
22111;SDS011;11222;50.872;4.312;2023-04-23T08:46:13;7.10;;;3.30;;
22111;SDS011;11222;50.872;4.312;2023-04-23T08:48:40;8.38;;;3.42;;
22111;SDS011;11222;50.872;4.312;2023-04-23T08:51:08;7.03;;;2.83;;
22111;SDS011;11222;50.872;4.312;2023-04-23T08:53:37;8.00;;;3.40;;
22111;SDS011;11222;50.872;4.312;2023-04-23T08:56:05;6.70;;;3.22;;
22111;SDS011;11222;50.872;4.312;2023-04-23T08:58:32;8.10;;;3.28;;
22111;SDS011;11222;50.872;4.312;2023-04-23T09:00:59;9.73;;;3.25;;
22111;SDS011;11222;50.872;4.312;2023-04-23T09:03:25;11.90;;;4.25;;
22111;SDS011;11222;50.872;4.312;2023-04-23T09:05:53;7.90;;;3.30;;
22111;SDS011;11222;50.872;4.312;2023-04-23T09:08:21;8.98;;;3.25;;
22111;SDS011;11222;50.872;4.312;2023-04-23T09:10:46;9.82;;;3.50;;
22111;SDS011;11222;50.872;4.312;2023-04-23T09:13:14;11.93;;;3.38;;
22111;SDS011;11222;50.872;4.312;2023-04-23T09:15:40;7.60;;;3.88;;
22111;SDS011;11222;50.872;4.312;2023-04-23T09:18:09;7.35;;;3.53;;
22111;SDS011;11222;50.872;4.312;2023-04-23T09:20:35;7.90;;;3.70;;
22111;SDS011;11222;50.872;4.312;2023-04-23T09:23:05;10.23;;;3.95;;
22111;SDS011;11222;50.872;4.312;2023-04-23T09:25:32;6.43;;;3.00;;
22111;SDS011;11222;50.872;4.312;2023-04-23T09:27:58;9.80;;;3.72;;
22111;SDS011;11222;50.872;4.312;2023-04-23T09:30:25;8.65;;;3.40;;
22111;SDS011;11222;50.872;4.312;2023-04-23T09:32:51;7.38;;;3.10;;
22111;SDS011;11222;50.872;4.312;2023-04-23T09:35:17;9.88;;;3.42;;
22111;SDS011;11222;50.872;4.312;2023-04-23T09:37:50;7.78;;;2.97;;
22111;SDS011;11222;50.872;4.312;2023-04-23T09:40:21;7.90;;;2.90;;
22111;SDS011;11222;50.872;4.312;2023-04-23T09:42:48;6.90;;;3.30;;
22111;SDS011;11222;50.872;4.312;2023-04-23T09:45:18;8.18;;;3.60;;
22111;SDS011;11222;50.872;4.312;2023-04-23T09:47:48;8.90;;;3.40;;
22111;SDS011;11222;50.872;4.312;2023-04-23T09:50:15;7.65;;;3.22;;
22111;SDS011;11222;50.872;4.312;2023-04-23T09:52:41;6.57;;;3.05;;
22111;SDS011;11222;50.872;4.312;2023-04-23T09:55:07;9.00;;;3.00;;
22111;SDS011;11222;50.872;4.312;2023-04-23T09:57:36;7.95;;;3.28;;
22111;SDS011;11222;50.872;4.312;2023-04-23T10:00:17;6.82;;;2.83;;
22111;SDS011;11222;50.872;4.312;2023-04-23T10:02:47;10.73;;;3.08;;
22111;SDS011;11222;50.872;4.312;2023-04-23T10:05:19;8.18;;;3.08;;
22111;SDS011;11222;50.872;4.312;2023-04-23T10:07:47;6.82;;;3.17;;
22111;SDS011;11222;50.872;4.312;2023-04-23T10:10:16;9.73;;;3.05;;
22111;SDS011;11222;50.872;4.312;2023-04-23T10:12:43;9.98;;;3.35;;
22111;SDS011;11222;50.872;4.312;2023-04-23T10:15:10;9.40;;;2.90;;
22111;SDS011;11222;50.872;4.312;2023-04-23T10:17:37;6.30;;;2.75;;
22111;SDS011;11222;50.872;4.312;2023-04-23T10:20:04;6.43;;;2.90;;
22111;SDS011;11222;50.872;4.312;2023-04-23T10:22:32;8.90;;;2.80;;
22111;SDS011;11222;50.872;4.312;2023-04-23T10:24:59;7.75;;;2.70;;
22111;SDS011;11222;50.872;4.312;2023-04-23T10:27:29;10.02;;;3.17;;
22111;SDS011;11222;50.872;4.312;2023-04-23T10:29:56;8.32;;;2.90;;
22111;SDS011;11222;50.872;4.312;2023-04-23T10:32:22;7.20;;;2.75;;
22111;SDS011;11222;50.872;4.312;2023-04-23T10:34:48;8.80;;;3.00;;
22111;SDS011;11222;50.872;4.312;2023-04-23T10:37:14;9.35;;;3.10;;
22111;SDS011;11222;50.872;4.312;2023-04-23T10:39:43;8.48;;;3.28;;
22111;SDS011;11222;50.872;4.312;2023-04-23T10:42:12;8.32;;;2.97;;
22111;SDS011;11222;50.872;4.312;2023-04-23T10:44:38;6.60;;;3.47;;
22111;SDS011;11222;50.872;4.312;2023-04-23T10:47:08;10.10;;;3.17;;
22111;SDS011;11222;50.872;4.312;2023-04-23T10:49:40;5.78;;;2.85;;
22111;SDS011;11222;50.872;4.312;2023-04-23T10:52:08;8.80;;;2.70;;
22111;SDS011;11222;50.872;4.312;2023-04-23T10:54:38;7.43;;;2.72;;
22111;SDS011;11222;50.872;4.312;2023-04-23T10:57:06;11.48;;;3.30;;
22111;SDS011;11222;50.872;4.312;2023-04-23T10:59:33;13.65;;;3.83;;
22111;SDS011;11222;50.872;4.312;2023-04-23T11:02:09;6.32;;;2.90;;
22111;SDS011;11222;50.872;4.312;2023-04-23T11:04:46;10.52;;;3.28;;
22111;SDS011;11222;50.872;4.312;2023-04-23T11:07:18;9.38;;;3.25;;
22111;SDS011;11222;50.872;4.312;2023-04-23T11:09:45;9.75;;;3.20;;
22111;SDS011;11222;50.872;4.312;2023-04-23T11:14:52;9.15;;;3.10;;
22111;SDS011;11222;50.872;4.312;2023-04-23T11:17:23;8.90;;;3.17;;
22111;SDS011;11222;50.872;4.312;2023-04-23T11:22:44;7.68;;;3.00;;
22111;SDS011;11222;50.872;4.312;2023-04-23T11:25:12;10.35;;;3.42;;
22111;SDS011;11222;50.872;4.312;2023-04-23T11:27:42;6.40;;;3.08;;
22111;SDS011;11222;50.872;4.312;2023-04-23T11:30:15;5.38;;;2.90;;
22111;SDS011;11222;50.872;4.312;2023-04-23T11:32:43;11.18;;;3.20;;
22111;SDS011;11222;50.872;4.312;2023-04-23T11:35:11;4.65;;;2.33;;
22111;SDS011;11222;50.872;4.312;2023-04-23T11:37:41;5.78;;;2.97;;
22111;SDS011;11222;50.872;4.312;2023-04-23T11:40:08;8.70;;;2.80;;
22111;SDS011;11222;50.872;4.312;2023-04-23T11:42:42;7.07;;;2.90;;
22111;SDS011;11222;50.872;4.312;2023-04-23T11:45:22;8.25;;;3.05;;
22111;SDS011;11222;50.872;4.312;2023-04-23T11:47:50;6.40;;;2.90;;
22111;SDS011;11222;50.872;4.312;2023-04-23T11:50:22;6.05;;;2.80;;
22111;SDS011;11222;50.872;4.312;2023-04-23T11:52:53;7.78;;;3.58;;
22111;SDS011;11222;50.872;4.312;2023-04-23T11:55:19;6.88;;;3.20;;
22111;SDS011;11222;50.872;4.312;2023-04-23T11:57:46;8.40;;;4.03;;
22111;SDS011;11222;50.872;4.312;2023-04-23T12:00:19;6.95;;;3.50;;
22111;SDS011;11222;50.872;4.312;2023-04-23T12:02:50;9.38;;;3.58;;
22111;SDS011;11222;50.872;4.312;2023-04-23T12:05:27;5.53;;;3.10;;
22111;SDS011;11222;50.872;4.312;2023-04-23T12:07:54;8.70;;;3.30;;
22111;SDS011;11222;50.872;4.312;2023-04-23T12:10:30;11.52;;;3.13;;
22111;SDS011;11222;50.872;4.312;2023-04-23T12:12:57;8.65;;;2.78;;
22111;SDS011;11222;50.872;4.312;2023-04-23T12:15:22;8.45;;;2.90;;
22111;SDS011;11222;50.872;4.312;2023-04-23T12:17:49;11.88;;;2.97;;
22111;SDS011;11222;50.872;4.312;2023-04-23T12:20:19;9.95;;;3.22;;
22111;SDS011;11222;50.872;4.312;2023-04-23T12:22:46;7.15;;;2.95;;
22111;SDS011;11222;50.872;4.312;2023-04-23T12:25:12;5.75;;;3.40;;
22111;SDS011;11222;50.872;4.312;2023-04-23T12:27:38;7.63;;;3.90;;
22111;SDS011;11222;50.872;4.312;2023-04-23T12:30:06;6.32;;;4.10;;
22111;SDS011;11222;50.872;4.312;2023-04-23T12:32:33;10.50;;;4.30;;
22111;SDS011;11222;50.872;4.312;2023-04-23T12:34:59;10.82;;;4.45;;
22111;SDS011;11222;50.872;4.312;2023-04-23T12:37:25;9.80;;;4.28;;
22111;SDS011;11222;50.872;4.312;2023-04-23T12:39:54;10.20;;;3.65;;
22111;SDS011;11222;50.872;4.312;2023-04-23T12:42:22;6.80;;;3.90;;
22111;SDS011;11222;50.872;4.312;2023-04-23T12:44:48;7.93;;;3.90;;
22111;SDS011;11222;50.872;4.312;2023-04-23T12:47:15;10.10;;;4.57;;
22111;SDS011;11222;50.872;4.312;2023-04-23T12:49:44;7.07;;;3.78;;
22111;SDS011;11222;50.872;4.312;2023-04-23T12:52:10;7.88;;;4.20;;
22111;SDS011;11222;50.872;4.312;2023-04-23T12:54:37;11.10;;;4.13;;
22111;SDS011;11222;50.872;4.312;2023-04-23T12:57:05;7.68;;;4.15;;
22111;SDS011;11222;50.872;4.312;2023-04-23T12:59:32;7.75;;;4.15;;
22111;SDS011;11222;50.872;4.312;2023-04-23T13:01:58;6.40;;;4.25;;
22111;SDS011;11222;50.872;4.312;2023-04-23T13:04:28;5.95;;;4.13;;
22111;SDS011;11222;50.872;4.312;2023-04-23T13:06:54;7.88;;;4.05;;
22111;SDS011;11222;50.872;4.312;2023-04-23T13:09:20;8.10;;;4.35;;
22111;SDS011;11222;50.872;4.312;2023-04-23T13:11:48;7.70;;;4.45;;
22111;SDS011;11222;50.872;4.312;2023-04-23T13:14:14;6.43;;;4.25;;
22111;SDS011;11222;50.872;4.312;2023-04-23T13:16:43;7.57;;;4.20;;
22111;SDS011;11222;50.872;4.312;2023-04-23T13:19:09;5.78;;;4.10;;
22111;SDS011;11222;50.872;4.312;2023-04-23T13:21:38;5.28;;;3.92;;
22111;SDS011;11222;50.872;4.312;2023-04-23T13:24:04;6.00;;;3.80;;
22111;SDS011;11222;50.872;4.312;2023-04-23T13:26:30;6.88;;;4.00;;
22111;SDS011;11222;50.872;4.312;2023-04-23T13:28:57;6.68;;;4.30;;
22111;SDS011;11222;50.872;4.312;2023-04-23T13:31:23;3.97;;;3.60;;
22111;SDS011;11222;50.872;4.312;2023-04-23T13:33:50;5.20;;;3.80;;
22111;SDS011;11222;50.872;4.312;2023-04-23T13:36:16;6.97;;;4.20;;
22111;SDS011;11222;50.872;4.312;2023-04-23T13:38:43;8.50;;;4.53;;
22111;SDS011;11222;50.872;4.312;2023-04-23T13:41:09;4.75;;;3.92;;
22111;SDS011;11222;50.872;4.312;2023-04-23T13:43:35;6.93;;;4.25;;
22111;SDS011;11222;50.872;4.312;2023-04-23T13:46:00;4.97;;;4.05;;
22111;SDS011;11222;50.872;4.312;2023-04-23T13:48:26;8.93;;;4.10;;
22111;SDS011;11222;50.872;4.312;2023-04-23T13:50:59;6.57;;;3.83;;
22111;SDS011;11222;50.872;4.312;2023-04-23T13:53:25;5.95;;;4.50;;
22111;SDS011;11222;50.872;4.312;2023-04-23T13:55:55;5.50;;;3.92;;
22111;SDS011;11222;50.872;4.312;2023-04-23T13:58:21;7.18;;;4.28;;
22111;SDS011;11222;50.872;4.312;2023-04-23T14:00:47;8.13;;;4.30;;
22111;SDS011;11222;50.872;4.312;2023-04-23T14:03:13;7.13;;;5.03;;
22111;SDS011;11222;50.872;4.312;2023-04-23T14:05:39;7.40;;;5.38;;
22111;SDS011;11222;50.872;4.312;2023-04-23T14:08:05;5.65;;;4.50;;
22111;SDS011;11222;50.872;4.312;2023-04-23T14:10:31;6.85;;;4.50;;
22111;SDS011;11222;50.872;4.312;2023-04-23T14:12:57;6.07;;;4.30;;
22111;SDS011;11222;50.872;4.312;2023-04-23T14:15:23;4.70;;;3.70;;
22111;SDS011;11222;50.872;4.312;2023-04-23T14:17:49;4.03;;;3.20;;
22111;SDS011;11222;50.872;4.312;2023-04-23T14:20:16;6.78;;;3.45;;
22111;SDS011;11222;50.872;4.312;2023-04-23T14:22:47;5.40;;;3.80;;
22111;SDS011;11222;50.872;4.312;2023-04-23T14:25:15;4.68;;;3.33;;
22111;SDS011;11222;50.872;4.312;2023-04-23T14:27:55;4.32;;;3.17;;
22111;SDS011;11222;50.872;4.312;2023-04-23T14:30:22;6.55;;;3.80;;
22111;SDS011;11222;50.872;4.312;2023-04-23T14:32:50;4.82;;;3.45;;
22111;SDS011;11222;50.872;4.312;2023-04-23T14:35:17;5.18;;;3.35;;
22111;SDS011;11222;50.872;4.312;2023-04-23T14:37:43;5.82;;;3.85;;
22111;SDS011;11222;50.872;4.312;2023-04-23T14:40:12;5.43;;;3.80;;